sensor_id;sensor_type;location;lat;lon;timestamp;pressure;altitude;pressure_sealevel;temperature;humidity
38880;BME280;25887;30.194;-97.880;2023-05-03T00:00:07;98058.19;;;28.97;43.61
38880;BME280;25887;30.194;-97.880;2023-05-03T00:02:34;98051.22;;;28.96;43.60
38880;BME280;25887;30.194;-97.880;2023-05-03T00:05:05;98048.81;;;28.93;43.57
38880;BME280;25887;30.194;-97.880;2023-05-03T00:07:37;98044.50;;;28.92;43.29
38880;BME280;25887;30.194;-97.880;2023-05-03T00:10:05;98044.63;;;28.90;43.92
38880;BME280;25887;30.194;-97.880;2023-05-03T00:12:31;98038.69;;;28.86;43.40
38880;BME280;25887;30.194;-97.880;2023-05-03T00:14:57;98042.16;;;28.87;44.05
38880;BME280;25887;30.194;-97.880;2023-05-03T00:17:24;98037.25;;;28.82;43.93
38880;BME280;25887;30.194;-97.880;2023-05-03T00:19:50;98047.22;;;28.79;43.96
38880;BME280;25887;30.194;-97.880;2023-05-03T00:22:20;98043.28;;;28.73;43.68
38880;BME280;25887;30.194;-97.880;2023-05-03T00:24:46;98050.47;;;28.71;44.11
38880;BME280;25887;30.194;-97.880;2023-05-03T00:27:14;98045.59;;;28.67;43.86
38880;BME280;25887;30.194;-97.880;2023-05-03T00:29:40;98049.31;;;28.64;44.11
38880;BME280;25887;30.194;-97.880;2023-05-03T00:32:06;98051.34;;;28.61;43.67
38880;BME280;25887;30.194;-97.880;2023-05-03T00:34:38;98049.78;;;28.58;44.09
38880;BME280;25887;30.194;-97.880;2023-05-03T00:37:04;98058.06;;;28.53;43.77
38880;BME280;25887;30.194;-97.880;2023-05-03T00:39:31;98060.97;;;28.50;44.28
38880;BME280;25887;30.194;-97.880;2023-05-03T00:41:58;98057.47;;;28.50;44.35
38880;BME280;25887;30.194;-97.880;2023-05-03T00:44:24;98060.34;;;28.47;44.45
38880;BME280;25887;30.194;-97.880;2023-05-03T00:46:51;98056.16;;;28.44;44.11
38880;BME280;25887;30.194;-97.880;2023-05-03T00:49:54;98059.63;;;28.45;43.98
38880;BME280;25887;30.194;-97.880;2023-05-03T00:52:22;98053.16;;;28.38;44.28
38880;BME280;25887;30.194;-97.880;2023-05-03T00:54:48;98058.69;;;28.35;44.37
38880;BME280;25887;30.194;-97.880;2023-05-03T00:57:14;98056.38;;;28.30;44.15
38880;BME280;25887;30.194;-97.880;2023-05-03T00:59:41;98060.81;;;28.29;44.13
38880;BME280;25887;30.194;-97.880;2023-05-03T01:02:07;98062.00;;;28.25;44.24
38880;BME280;25887;30.194;-97.880;2023-05-03T01:04:34;98069.31;;;28.22;44.37
38880;BME280;25887;30.194;-97.880;2023-05-03T01:09:59;98074.22;;;28.15;44.06
38880;BME280;25887;30.194;-97.880;2023-05-03T01:12:54;98074.47;;;28.12;44.60
38880;BME280;25887;30.194;-97.880;2023-05-03T01:15:38;98080.22;;;28.06;44.49
38880;BME280;25887;30.194;-97.880;2023-05-03T01:18:13;98072.53;;;28.03;44.33
38880;BME280;25887;30.194;-97.880;2023-05-03T01:20:47;98068.41;;;27.99;44.34
38880;BME280;25887;30.194;-97.880;2023-05-03T01:23:45;98069.97;;;28.01;44.58
38880;BME280;25887;30.194;-97.880;2023-05-03T01:26:25;98065.41;;;27.92;44.23
38880;BME280;25887;30.194;-97.880;2023-05-03T01:28:52;98061.53;;;27.85;44.66
38880;BME280;25887;30.194;-97.880;2023-05-03T01:31:32;98061.78;;;27.82;44.72
38880;BME280;25887;30.194;-97.880;2023-05-03T01:34:09;98058.75;;;27.75;44.91
38880;BME280;25887;30.194;-97.880;2023-05-03T01:36:42;98064.16;;;27.74;44.96
38880;BME280;25887;30.194;-97.880;2023-05-03T01:39:16;98071.47;;;27.70;44.95
38880;BME280;25887;30.194;-97.880;2023-05-03T01:41:43;98069.44;;;27.74;44.44
38880;BME280;25887;30.194;-97.880;2023-05-03T01:44:12;98069.25;;;27.64;44.79
38880;BME280;25887;30.194;-97.880;2023-05-03T01:46:45;98072.22;;;27.60;44.83
38880;BME280;25887;30.194;-97.880;2023-05-03T01:49:12;98076.16;;;27.54;45.32
38880;BME280;25887;30.194;-97.880;2023-05-03T01:51:38;98073.88;;;27.49;45.33
38880;BME280;25887;30.194;-97.880;2023-05-03T01:54:05;98076.72;;;27.46;45.15
38880;BME280;25887;30.194;-97.880;2023-05-03T01:56:34;98066.53;;;27.42;45.05
38880;BME280;25887;30.194;-97.880;2023-05-03T01:59:02;98081.63;;;27.40;45.68
38880;BME280;25887;30.194;-97.880;2023-05-03T02:01:30;98080.03;;;27.37;45.68
38880;BME280;25887;30.194;-97.880;2023-05-03T02:03:56;98078.47;;;27.35;45.63
38880;BME280;25887;30.194;-97.880;2023-05-03T02:06:24;98090.94;;;27.33;45.41
38880;BME280;25887;30.194;-97.880;2023-05-03T02:08:52;98086.84;;;27.29;45.42
38880;BME280;25887;30.194;-97.880;2023-05-03T02:11:20;98086.09;;;27.27;45.81
38880;BME280;25887;30.194;-97.880;2023-05-03T02:13:48;98083.78;;;27.22;45.89
38880;BME280;25887;30.194;-97.880;2023-05-03T02:16:16;98091.09;;;27.18;45.57
38880;BME280;25887;30.194;-97.880;2023-05-03T02:18:42;98103.75;;;27.13;45.78
38880;BME280;25887;30.194;-97.880;2023-05-03T02:21:09;98115.50;;;27.09;45.84
38880;BME280;25887;30.194;-97.880;2023-05-03T02:23:37;98120.97;;;27.06;46.12
38880;BME280;25887;30.194;-97.880;2023-05-03T02:26:05;98115.91;;;27.03;46.16
38880;BME280;25887;30.194;-97.880;2023-05-03T02:28:32;98129.28;;;27.00;45.81
38880;BME280;25887;30.194;-97.880;2023-05-03T02:30:59;98131.19;;;26.98;45.98
38880;BME280;25887;30.194;-97.880;2023-05-03T02:33:25;98137.66;;;26.94;46.25
38880;BME280;25887;30.194;-97.880;2023-05-03T02:35:52;98127.75;;;26.85;46.17
38880;BME280;25887;30.194;-97.880;2023-05-03T02:38:18;98135.88;;;26.82;46.18
38880;BME280;25887;30.194;-97.880;2023-05-03T02:40:44;98147.59;;;26.78;46.53
38880;BME280;25887;30.194;-97.880;2023-05-03T02:43:10;98148.00;;;26.72;46.18
38880;BME280;25887;30.194;-97.880;2023-05-03T02:45:37;98157.06;;;26.67;46.35
38880;BME280;25887;30.194;-97.880;2023-05-03T02:48:03;98164.47;;;26.62;46.37
38880;BME280;25887;30.194;-97.880;2023-05-03T02:50:29;98169.91;;;26.59;46.62
38880;BME280;25887;30.194;-97.880;2023-05-03T02:52:56;98175.41;;;26.56;46.49
38880;BME280;25887;30.194;-97.880;2023-05-03T02:55:22;98172.13;;;26.53;46.82
38880;BME280;25887;30.194;-97.880;2023-05-03T02:57:48;98170.56;;;26.50;46.79
38880;BME280;25887;30.194;-97.880;2023-05-03T03:00:17;98184.91;;;26.46;46.88
38880;BME280;25887;30.194;-97.880;2023-05-03T03:02:45;98192.88;;;26.45;47.10
38880;BME280;25887;30.194;-97.880;2023-05-03T03:05:11;98193.22;;;26.40;47.03
38880;BME280;25887;30.194;-97.880;2023-05-03T03:07:38;98203.06;;;26.36;47.13
38880;BME280;25887;30.194;-97.880;2023-05-03T03:10:06;98210.22;;;26.34;47.05
38880;BME280;25887;30.194;-97.880;2023-05-03T03:12:37;98220.16;;;26.31;47.22
38880;BME280;25887;30.194;-97.880;2023-05-03T03:15:03;98220.53;;;26.25;47.27
38880;BME280;25887;30.194;-97.880;2023-05-03T03:17:30;98223.28;;;26.23;47.11
38880;BME280;25887;30.194;-97.880;2023-05-03T03:19:56;98230.53;;;26.20;47.30
38880;BME280;25887;30.194;-97.880;2023-05-03T03:22:30;98222.94;;;26.15;47.29
38880;BME280;25887;30.194;-97.880;2023-05-03T03:24:56;98226.59;;;26.13;47.50
38880;BME280;25887;30.194;-97.880;2023-05-03T03:27:22;98222.50;;;26.08;47.52
38880;BME280;25887;30.194;-97.880;2023-05-03T03:29:49;98228.91;;;26.04;47.74
38880;BME280;25887;30.194;-97.880;2023-05-03T03:32:15;98236.06;;;26.02;47.73
38880;BME280;25887;30.194;-97.880;2023-05-03T03:34:41;98249.44;;;25.99;47.85
38880;BME280;25887;30.194;-97.880;2023-05-03T03:37:08;98244.56;;;25.93;47.89
38880;BME280;25887;30.194;-97.880;2023-05-03T03:39:36;98257.16;;;25.88;48.05
38880;BME280;25887;30.194;-97.880;2023-05-03T03:42:05;98249.66;;;25.82;48.00
38880;BME280;25887;30.194;-97.880;2023-05-03T03:44:31;98257.75;;;25.79;48.03
38880;BME280;25887;30.194;-97.880;2023-05-03T03:46:58;98270.34;;;25.74;48.05
38880;BME280;25887;30.194;-97.880;2023-05-03T03:49:24;98266.22;;;25.70;48.02
38880;BME280;25887;30.194;-97.880;2023-05-03T03:51:50;98258.50;;;25.67;48.36
38880;BME280;25887;30.194;-97.880;2023-05-03T03:54:16;98267.53;;;25.63;48.37
38880;BME280;25887;30.194;-97.880;2023-05-03T03:56:42;98265.19;;;25.58;48.21
38880;BME280;25887;30.194;-97.880;2023-05-03T03:59:09;98260.13;;;25.55;48.48
38880;BME280;25887;30.194;-97.880;2023-05-03T04:01:35;98261.13;;;25.52;48.66
38880;BME280;25887;30.194;-97.880;2023-05-03T04:04:01;98264.81;;;25.50;48.54
38880;BME280;25887;30.194;-97.880;2023-05-03T04:06:27;98261.56;;;25.46;48.57
38880;BME280;25887;30.194;-97.880;2023-05-03T04:08:53;98273.19;;;25.42;48.60
38880;BME280;25887;30.194;-97.880;2023-05-03T04:11:19;98273.50;;;25.38;48.73
38880;BME280;25887;30.194;-97.880;2023-05-03T04:13:48;98271.13;;;25.33;48.73
38880;BME280;25887;30.194;-97.880;2023-05-03T04:16:15;98274.13;;;25.27;49.01
38880;BME280;25887;30.194;-97.880;2023-05-03T04:18:41;98284.09;;;25.22;48.79
38880;BME280;25887;30.194;-97.880;2023-05-03T04:21:09;98284.38;;;25.17;48.90
38880;BME280;25887;30.194;-97.880;2023-05-03T04:23:35;98290.84;;;25.12;49.03
38880;BME280;25887;30.194;-97.880;2023-05-03T04:26:03;98290.28;;;25.07;48.96
38880;BME280;25887;30.194;-97.880;2023-05-03T04:28:29;98291.47;;;25.01;49.01
38880;BME280;25887;30.194;-97.880;2023-05-03T04:30:55;98289.19;;;24.95;49.02
38880;BME280;25887;30.194;-97.880;2023-05-03T04:33:24;98286.00;;;24.90;49.19
38880;BME280;25887;30.194;-97.880;2023-05-03T04:35:50;98289.84;;;24.84;49.27
38880;BME280;25887;30.194;-97.880;2023-05-03T04:38:17;98283.06;;;24.80;49.46
38880;BME280;25887;30.194;-97.880;2023-05-03T04:40:44;98288.53;;;24.77;49.47
38880;BME280;25887;30.194;-97.880;2023-05-03T04:43:11;98287.09;;;24.71;49.65
38880;BME280;25887;30.194;-97.880;2023-05-03T04:45:38;98285.50;;;24.69;49.53
38880;BME280;25887;30.194;-97.880;2023-05-03T04:48:04;98286.69;;;24.63;49.42
38880;BME280;25887;30.194;-97.880;2023-05-03T04:50:31;98288.56;;;24.61;49.54
38880;BME280;25887;30.194;-97.880;2023-05-03T04:52:58;98289.59;;;24.59;49.66
38880;BME280;25887;30.194;-97.880;2023-05-03T04:55:24;98291.66;;;24.54;49.91
38880;BME280;25887;30.194;-97.880;2023-05-03T04:57:52;98290.91;;;24.52;49.78
38880;BME280;25887;30.194;-97.880;2023-05-03T05:00:19;98291.06;;;24.49;49.88
38880;BME280;25887;30.194;-97.880;2023-05-03T05:02:46;98284.13;;;24.48;49.93
38880;BME280;25887;30.194;-97.880;2023-05-03T05:05:12;98287.59;;;24.48;50.00
38880;BME280;25887;30.194;-97.880;2023-05-03T05:07:38;98286.84;;;24.46;49.97
38880;BME280;25887;30.194;-97.880;2023-05-03T05:10:05;98292.09;;;24.46;50.13
38880;BME280;25887;30.194;-97.880;2023-05-03T05:12:32;98287.78;;;24.45;50.17
38880;BME280;25887;30.194;-97.880;2023-05-03T05:14:58;98291.34;;;24.44;50.25
38880;BME280;25887;30.194;-97.880;2023-05-03T05:17:24;98287.94;;;24.42;50.17
38880;BME280;25887;30.194;-97.880;2023-05-03T05:19:51;98288.13;;;24.39;50.57
38880;BME280;25887;30.194;-97.880;2023-05-03T05:22:18;98291.94;;;24.33;50.32
38880;BME280;25887;30.194;-97.880;2023-05-03T05:24:44;98288.88;;;24.25;50.45
38880;BME280;25887;30.194;-97.880;2023-05-03T05:27:11;98293.53;;;24.20;50.36
38880;BME280;25887;30.194;-97.880;2023-05-03T05:29:37;98285.00;;;24.16;50.51
38880;BME280;25887;30.194;-97.880;2023-05-03T05:32:04;98278.25;;;24.12;50.47
38880;BME280;25887;30.194;-97.880;2023-05-03T05:34:31;98277.66;;;24.07;50.42
38880;BME280;25887;30.194;-97.880;2023-05-03T05:36:57;98286.56;;;24.05;50.38
38880;BME280;25887;30.194;-97.880;2023-05-03T05:39:23;98292.69;;;24.04;50.87
38880;BME280;25887;30.194;-97.880;2023-05-03T05:41:50;98292.88;;;24.01;50.76
38880;BME280;25887;30.194;-97.880;2023-05-03T05:44:16;98291.19;;;24.00;50.57
38880;BME280;25887;30.194;-97.880;2023-05-03T05:46:42;98297.38;;;23.99;50.78
38880;BME280;25887;30.194;-97.880;2023-05-03T05:49:09;98304.56;;;23.95;50.77
38880;BME280;25887;30.194;-97.880;2023-05-03T05:51:35;98293.41;;;23.92;51.11
38880;BME280;25887;30.194;-97.880;2023-05-03T05:54:02;98299.00;;;23.85;50.97
38880;BME280;25887;30.194;-97.880;2023-05-03T05:56:29;98305.25;;;23.83;50.88
38880;BME280;25887;30.194;-97.880;2023-05-03T05:58:55;98308.22;;;23.77;51.27
38880;BME280;25887;30.194;-97.880;2023-05-03T06:01:23;98297.03;;;23.73;51.17
38880;BME280;25887;30.194;-97.880;2023-05-03T06:03:51;98304.13;;;23.71;51.31
38880;BME280;25887;30.194;-97.880;2023-05-03T06:06:17;98301.69;;;23.68;51.18
38880;BME280;25887;30.194;-97.880;2023-05-03T06:08:44;98293.97;;;23.65;51.34
38880;BME280;25887;30.194;-97.880;2023-05-03T06:11:10;98294.06;;;23.63;51.21
38880;BME280;25887;30.194;-97.880;2023-05-03T06:13:39;98285.63;;;23.57;51.08
38880;BME280;25887;30.194;-97.880;2023-05-03T06:16:06;98279.81;;;23.52;51.43
38880;BME280;25887;30.194;-97.880;2023-05-03T06:18:32;98289.59;;;23.48;51.54
38880;BME280;25887;30.194;-97.880;2023-05-03T06:20:58;98283.69;;;23.45;51.42
38880;BME280;25887;30.194;-97.880;2023-05-03T06:23:24;98280.31;;;23.43;51.18
38880;BME280;25887;30.194;-97.880;2023-05-03T06:25:52;98279.63;;;23.39;51.57
38880;BME280;25887;30.194;-97.880;2023-05-03T06:28:18;98283.19;;;23.38;51.73
38880;BME280;25887;30.194;-97.880;2023-05-03T06:30:49;98279.72;;;23.38;51.48
38880;BME280;25887;30.194;-97.880;2023-05-03T06:33:15;98272.00;;;23.34;51.60
38880;BME280;25887;30.194;-97.880;2023-05-03T06:35:41;98272.06;;;23.33;51.85
38880;BME280;25887;30.194;-97.880;2023-05-03T06:38:09;98260.00;;;23.30;51.83
38880;BME280;25887;30.194;-97.880;2023-05-03T06:40:36;98262.78;;;23.27;51.92
38880;BME280;25887;30.194;-97.880;2023-05-03T06:43:02;98267.25;;;23.25;51.68
38880;BME280;25887;30.194;-97.880;2023-05-03T06:45:30;98271.13;;;23.18;51.88
38880;BME280;25887;30.194;-97.880;2023-05-03T06:47:56;98268.75;;;23.14;51.78
38880;BME280;25887;30.194;-97.880;2023-05-03T06:50:22;98271.59;;;23.09;52.08
38880;BME280;25887;30.194;-97.880;2023-05-03T06:52:49;98271.91;;;23.03;52.13
38880;BME280;25887;30.194;-97.880;2023-05-03T06:55:16;98279.94;;;23.00;51.89
38880;BME280;25887;30.194;-97.880;2023-05-03T06:57:42;98276.66;;;22.96;51.90
38880;BME280;25887;30.194;-97.880;2023-05-03T07:00:09;98270.72;;;22.93;52.13
38880;BME280;25887;30.194;-97.880;2023-05-03T07:02:36;98274.25;;;22.92;51.99
38880;BME280;25887;30.194;-97.880;2023-05-03T07:05:04;98274.44;;;22.89;52.19
38880;BME280;25887;30.194;-97.880;2023-05-03T07:07:31;98278.09;;;22.85;52.50
38880;BME280;25887;30.194;-97.880;2023-05-03T07:09:58;98271.31;;;22.80;52.17
38880;BME280;25887;30.194;-97.880;2023-05-03T07:12:24;98274.00;;;22.79;52.33
38880;BME280;25887;30.194;-97.880;2023-05-03T07:14:56;98269.69;;;22.78;52.25
38880;BME280;25887;30.194;-97.880;2023-05-03T07:17:22;98264.72;;;22.73;52.03
38880;BME280;25887;30.194;-97.880;2023-05-03T07:19:50;98272.63;;;22.72;52.60
38880;BME280;25887;30.194;-97.880;2023-05-03T07:22:17;98274.56;;;22.68;52.34
38880;BME280;25887;30.194;-97.880;2023-05-03T07:24:45;98271.25;;;22.65;52.52
38880;BME280;25887;30.194;-97.880;2023-05-03T07:27:12;98270.56;;;22.61;52.33
38880;BME280;25887;30.194;-97.880;2023-05-03T07:29:40;98275.97;;;22.58;52.38
38880;BME280;25887;30.194;-97.880;2023-05-03T07:32:06;98264.84;;;22.53;52.52
38880;BME280;25887;30.194;-97.880;2023-05-03T07:34:33;98258.09;;;22.49;52.54
38880;BME280;25887;30.194;-97.880;2023-05-03T07:36:59;98252.22;;;22.44;52.88
38880;BME280;25887;30.194;-97.880;2023-05-03T07:39:27;98262.00;;;22.40;52.67
38880;BME280;25887;30.194;-97.880;2023-05-03T07:41:53;98251.84;;;22.34;52.68
38880;BME280;25887;30.194;-97.880;2023-05-03T07:44:19;98262.38;;;22.33;52.54
38880;BME280;25887;30.194;-97.880;2023-05-03T07:46:45;98262.53;;;22.30;52.67
38880;BME280;25887;30.194;-97.880;2023-05-03T07:49:11;98262.53;;;22.30;52.62
38880;BME280;25887;30.194;-97.880;2023-05-03T07:51:38;98269.53;;;22.29;52.64
38880;BME280;25887;30.194;-97.880;2023-05-03T07:54:04;98267.97;;;22.25;52.92
38880;BME280;25887;30.194;-97.880;2023-05-03T07:56:33;98274.16;;;22.24;53.00
38880;BME280;25887;30.194;-97.880;2023-05-03T07:58:59;98270.84;;;22.20;52.97
38880;BME280;25887;30.194;-97.880;2023-05-03T08:01:25;98273.47;;;22.20;52.96
38880;BME280;25887;30.194;-97.880;2023-05-03T08:03:52;98268.31;;;22.19;53.19
38880;BME280;25887;30.194;-97.880;2023-05-03T08:06:18;98279.63;;;22.19;52.90
38880;BME280;25887;30.194;-97.880;2023-05-03T08:08:45;98281.44;;;22.17;52.93
38880;BME280;25887;30.194;-97.880;2023-05-03T08:11:11;98282.44;;;22.15;53.40
38880;BME280;25887;30.194;-97.880;2023-05-03T08:13:37;98287.75;;;22.13;53.20
38880;BME280;25887;30.194;-97.880;2023-05-03T08:16:03;98287.00;;;22.11;53.43
38880;BME280;25887;30.194;-97.880;2023-05-03T08:18:30;98287.97;;;22.09;53.46
38880;BME280;25887;30.194;-97.880;2023-05-03T08:20:57;98291.50;;;22.08;53.53
38880;BME280;25887;30.194;-97.880;2023-05-03T08:23:23;98295.88;;;22.07;53.78
38880;BME280;25887;30.194;-97.880;2023-05-03T08:25:50;98298.47;;;22.07;53.89
38880;BME280;25887;30.194;-97.880;2023-05-03T08:28:16;98290.63;;;22.07;53.70
38880;BME280;25887;30.194;-97.880;2023-05-03T08:30:42;98296.78;;;22.06;53.97
38880;BME280;25887;30.194;-97.880;2023-05-03T08:33:09;98291.56;;;22.06;54.00
38880;BME280;25887;30.194;-97.880;2023-05-03T08:35:36;98290.78;;;22.04;53.74
38880;BME280;25887;30.194;-97.880;2023-05-03T08:38:04;98288.31;;;22.01;53.99
38880;BME280;25887;30.194;-97.880;2023-05-03T08:40:31;98294.53;;;21.98;53.78
38880;BME280;25887;30.194;-97.880;2023-05-03T08:43:06;98299.84;;;21.97;53.75
38880;BME280;25887;30.194;-97.880;2023-05-03T08:45:34;98308.69;;;21.94;53.86
38880;BME280;25887;30.194;-97.880;2023-05-03T08:48:01;98314.06;;;21.91;53.65
38880;BME280;25887;30.194;-97.880;2023-05-03T08:50:29;98308.97;;;21.88;53.79
38880;BME280;25887;30.194;-97.880;2023-05-03T08:52:56;98303.03;;;21.85;53.57
38880;BME280;25887;30.194;-97.880;2023-05-03T08:55:24;98305.88;;;21.80;53.44
38880;BME280;25887;30.194;-97.880;2023-05-03T08:57:50;98313.06;;;21.75;53.59
38880;BME280;25887;30.194;-97.880;2023-05-03T09:00:16;98315.84;;;21.72;53.93
38880;BME280;25887;30.194;-97.880;2023-05-03T09:02:45;98313.44;;;21.67;53.61
38880;BME280;25887;30.194;-97.880;2023-05-03T09:08:07;98313.59;;;21.64;53.84
38880;BME280;25887;30.194;-97.880;2023-05-03T09:10:37;98324.25;;;21.60;53.77
38880;BME280;25887;30.194;-97.880;2023-05-03T09:13:04;98319.94;;;21.59;53.62
38880;BME280;25887;30.194;-97.880;2023-05-03T09:15:32;98321.63;;;21.60;53.62
38880;BME280;25887;30.194;-97.880;2023-05-03T09:18:25;98310.16;;;21.62;53.62
38880;BME280;25887;30.194;-97.880;2023-05-03T09:20:51;98316.31;;;21.61;53.85
38880;BME280;25887;30.194;-97.880;2023-05-03T09:23:40;98323.19;;;21.64;54.02
38880;BME280;25887;30.194;-97.880;2023-05-03T09:26:05;98319.50;;;21.68;53.90
38880;BME280;25887;30.194;-97.880;2023-05-03T09:28:40;98332.22;;;21.76;53.97
38880;BME280;25887;30.194;-97.880;2023-05-03T09:31:07;98335.50;;;21.81;54.24
38880;BME280;25887;30.194;-97.880;2023-05-03T09:33:34;98325.59;;;21.87;54.72
38880;BME280;25887;30.194;-97.880;2023-05-03T09:36:02;98336.59;;;21.94;54.77
38880;BME280;25887;30.194;-97.880;2023-05-03T09:38:31;98331.16;;;21.98;54.72
38880;BME280;25887;30.194;-97.880;2023-05-03T09:40:58;98332.56;;;22.06;54.93
38880;BME280;25887;30.194;-97.880;2023-05-03T09:43:26;98327.16;;;22.10;55.02
38880;BME280;25887;30.194;-97.880;2023-05-03T09:46:09;98318.06;;;22.17;55.08
38880;BME280;25887;30.194;-97.880;2023-05-03T09:48:37;98315.25;;;22.22;55.43
38880;BME280;25887;30.194;-97.880;2023-05-03T09:51:05;98305.47;;;22.25;55.43
38880;BME280;25887;30.194;-97.880;2023-05-03T09:53:33;98302.56;;;22.32;55.80
38880;BME280;25887;30.194;-97.880;2023-05-03T09:56:08;98311.13;;;22.35;55.64
38880;BME280;25887;30.194;-97.880;2023-05-03T09:58:39;98314.34;;;22.40;55.84
38880;BME280;25887;30.194;-97.880;2023-05-03T10:01:07;98315.06;;;22.44;56.30
38880;BME280;25887;30.194;-97.880;2023-05-03T10:03:45;98318.44;;;22.46;56.28
38880;BME280;25887;30.194;-97.880;2023-05-03T10:06:37;98312.19;;;22.48;55.74
38880;BME280;25887;30.194;-97.880;2023-05-03T10:11:53;98325.28;;;22.48;55.92
38880;BME280;25887;30.194;-97.880;2023-05-03T10:14:20;98328.00;;;22.47;56.19
38880;BME280;25887;30.194;-97.880;2023-05-03T10:16:49;98334.03;;;22.49;56.10
38880;BME280;25887;30.194;-97.880;2023-05-03T10:19:32;98344.34;;;22.52;55.92
38880;BME280;25887;30.194;-97.880;2023-05-03T10:22:07;98343.50;;;22.51;56.00
38880;BME280;25887;30.194;-97.880;2023-05-03T10:24:35;98339.25;;;22.49;56.29
38880;BME280;25887;30.194;-97.880;2023-05-03T10:27:06;98345.34;;;22.49;56.03
38880;BME280;25887;30.194;-97.880;2023-05-03T10:29:54;98338.25;;;22.51;56.15
38880;BME280;25887;30.194;-97.880;2023-05-03T10:32:30;98335.75;;;22.48;56.18
38880;BME280;25887;30.194;-97.880;2023-05-03T10:35:16;98333.22;;;22.47;56.48
38880;BME280;25887;30.194;-97.880;2023-05-03T10:37:44;98326.47;;;22.43;56.27
38880;BME280;25887;30.194;-97.880;2023-05-03T10:40:15;98333.47;;;22.42;56.15
38880;BME280;25887;30.194;-97.880;2023-05-03T10:42:53;98333.53;;;22.41;56.52
38880;BME280;25887;30.194;-97.880;2023-05-03T10:45:27;98329.16;;;22.41;56.23
38880;BME280;25887;30.194;-97.880;2023-05-03T10:50:38;98337.22;;;22.37;56.48
38880;BME280;25887;30.194;-97.880;2023-05-03T10:53:05;98339.06;;;22.35;56.31
38880;BME280;25887;30.194;-97.880;2023-05-03T10:55:32;98356.56;;;22.34;56.49
38880;BME280;25887;30.194;-97.880;2023-05-03T10:57:59;98372.25;;;22.34;56.67
38880;BME280;25887;30.194;-97.880;2023-05-03T11:03:23;98392.34;;;22.34;56.53
38880;BME280;25887;30.194;-97.880;2023-05-03T11:05:53;98396.03;;;22.30;56.76
38880;BME280;25887;30.194;-97.880;2023-05-03T11:08:21;98398.63;;;22.30;56.63
38880;BME280;25887;30.194;-97.880;2023-05-03T11:10:54;98406.50;;;22.30;56.88
38880;BME280;25887;30.194;-97.880;2023-05-03T11:13:21;98416.13;;;22.29;56.64
38880;BME280;25887;30.194;-97.880;2023-05-03T11:15:48;98427.50;;;22.28;56.68
38880;BME280;25887;30.194;-97.880;2023-05-03T11:18:15;98424.16;;;22.24;56.99
38880;BME280;25887;30.194;-97.880;2023-05-03T11:20:43;98416.38;;;22.23;56.90
38880;BME280;25887;30.194;-97.880;2023-05-03T11:23:10;98423.56;;;22.19;56.81
38880;BME280;25887;30.194;-97.880;2023-05-03T11:25:36;98421.13;;;22.15;56.79
38880;BME280;25887;30.194;-97.880;2023-05-03T11:28:05;98421.22;;;22.13;56.59
38880;BME280;25887;30.194;-97.880;2023-05-03T11:30:33;98423.09;;;22.10;56.98
38880;BME280;25887;30.194;-97.880;2023-05-03T11:33:02;98433.66;;;22.08;56.49
38880;BME280;25887;30.194;-97.880;2023-05-03T11:35:29;98432.81;;;22.08;57.02
38880;BME280;25887;30.194;-97.880;2023-05-03T11:37:56;98428.47;;;22.07;57.02
38880;BME280;25887;30.194;-97.880;2023-05-03T11:40:22;98421.47;;;22.07;57.19
38880;BME280;25887;30.194;-97.880;2023-05-03T11:42:57;98419.75;;;22.06;56.95
38880;BME280;25887;30.194;-97.880;2023-05-03T11:45:27;98427.38;;;22.12;56.69
38880;BME280;25887;30.194;-97.880;2023-05-03T11:47:55;98423.31;;;22.05;56.85
38880;BME280;25887;30.194;-97.880;2023-05-03T11:50:51;98427.50;;;22.09;56.71
38880;BME280;25887;30.194;-97.880;2023-05-03T11:53:25;98421.47;;;22.07;57.15
38880;BME280;25887;30.194;-97.880;2023-05-03T11:55:52;98416.22;;;22.07;57.37
38880;BME280;25887;30.194;-97.880;2023-05-03T11:58:26;98420.50;;;22.10;57.38
38880;BME280;25887;30.194;-97.880;2023-05-03T12:00:56;98409.19;;;22.09;57.65
38880;BME280;25887;30.194;-97.880;2023-05-03T12:03:27;98414.28;;;22.12;57.94
38880;BME280;25887;30.194;-97.880;2023-05-03T12:05:55;98413.38;;;22.13;57.54
38880;BME280;25887;30.194;-97.880;2023-05-03T12:08:27;98404.66;;;22.13;57.77
38880;BME280;25887;30.194;-97.880;2023-05-03T12:10:54;98414.97;;;22.16;58.00
38880;BME280;25887;30.194;-97.880;2023-05-03T12:13:29;98404.44;;;22.17;58.35
38880;BME280;25887;30.194;-97.880;2023-05-03T12:15:59;98395.81;;;22.15;58.46
38880;BME280;25887;30.194;-97.880;2023-05-03T12:18:57;98408.78;;;22.18;58.51
38880;BME280;25887;30.194;-97.880;2023-05-03T12:21:47;98415.81;;;22.16;58.43
38880;BME280;25887;30.194;-97.880;2023-05-03T12:24:19;98414.22;;;22.14;58.48
38880;BME280;25887;30.194;-97.880;2023-05-03T12:26:48;98424.69;;;22.14;58.60
38880;BME280;25887;30.194;-97.880;2023-05-03T12:32:37;98430.84;;;22.13;58.54
38880;BME280;25887;30.194;-97.880;2023-05-03T12:35:06;98431.75;;;22.12;58.50
38880;BME280;25887;30.194;-97.880;2023-05-03T12:37:37;98427.38;;;22.12;58.77
38880;BME280;25887;30.194;-97.880;2023-05-03T12:40:04;98435.13;;;22.14;58.74
38880;BME280;25887;30.194;-97.880;2023-05-03T12:42:31;98439.38;;;22.16;59.03
38880;BME280;25887;30.194;-97.880;2023-05-03T12:44:59;98446.31;;;22.17;58.84
38880;BME280;25887;30.194;-97.880;2023-05-03T12:47:26;98447.19;;;22.18;58.98
38880;BME280;25887;30.194;-97.880;2023-05-03T12:49:53;98454.03;;;22.20;58.84
38880;BME280;25887;30.194;-97.880;2023-05-03T12:52:20;98453.09;;;22.21;59.21
38880;BME280;25887;30.194;-97.880;2023-05-03T12:54:48;98452.25;;;22.21;59.20
38880;BME280;25887;30.194;-97.880;2023-05-03T12:57:14;98441.72;;;22.22;58.85
38880;BME280;25887;30.194;-97.880;2023-05-03T12:59:41;98448.72;;;22.22;59.06
38880;BME280;25887;30.194;-97.880;2023-05-03T13:02:09;98447.78;;;22.23;58.95
38880;BME280;25887;30.194;-97.880;2023-05-03T13:04:36;98446.03;;;22.23;59.15